sensor_id;sensor_type;location;lat;lon;timestamp;pressure;altitude;pressure_sealevel;temperature;humidity
76994;BME280;66749;47.406;18.822;2023-12-20T00:00:05;100609.28;;;1.01;95.79
76994;BME280;66749;47.406;18.822;2023-12-20T00:00:39;100601.63;;;1.00;95.48
76994;BME280;66749;47.406;18.822;2023-12-20T00:01:11;100593.88;;;1.01;96.29
76994;BME280;66749;47.406;18.822;2023-12-20T00:01:43;100601.59;;;1.01;95.56
76994;BME280;66749;47.406;18.822;2023-12-20T00:02:15;100604.16;;;1.01;95.74
76994;BME280;66749;47.406;18.822;2023-12-20T00:02:47;100595.63;;;0.99;96.19
76994;BME280;66749;47.406;18.822;2023-12-20T00:03:19;100599.91;;;1.00;96.06
76994;BME280;66749;47.406;18.822;2023-12-20T00:03:51;100590.44;;;1.02;96.20
76994;BME280;66749;47.406;18.822;2023-12-20T00:04:23;100600.78;;;0.99;95.79
76994;BME280;66749;47.406;18.822;2023-12-20T00:04:55;100599.06;;;0.98;96.05
76994;BME280;66749;47.406;18.822;2023-12-20T00:05:27;100599.06;;;0.98;96.01
76994;BME280;66749;47.406;18.822;2023-12-20T00:05:59;100597.31;;;1.00;96.36
76994;BME280;66749;47.406;18.822;2023-12-20T00:06:31;100591.34;;;1.00;96.45
76994;BME280;66749;47.406;18.822;2023-12-20T00:07:03;100588.75;;;1.01;96.41
76994;BME280;66749;47.406;18.822;2023-12-20T00:07:35;100588.75;;;1.01;96.18
76994;BME280;66749;47.406;18.822;2023-12-20T00:08:07;100584.44;;;1.02;96.27
76994;BME280;66749;47.406;18.822;2023-12-20T00:08:39;100587.91;;;1.01;96.12
76994;BME280;66749;47.406;18.822;2023-12-20T00:09:11;100583.56;;;1.03;96.38
76994;BME280;66749;47.406;18.822;2023-12-20T00:09:42;100585.31;;;1.01;96.29
76994;BME280;66749;47.406;18.822;2023-12-20T00:10:14;100589.66;;;0.99;96.27
76994;BME280;66749;47.406;18.822;2023-12-20T00:10:46;100582.75;;;1.01;96.09
76994;BME280;66749;47.406;18.822;2023-12-20T00:11:18;100585.31;;;1.01;96.53
76994;BME280;66749;47.406;18.822;2023-12-20T00:11:50;100581.03;;;1.01;96.51
76994;BME280;66749;47.406;18.822;2023-12-20T00:12:22;100578.47;;;1.01;96.69
76994;BME280;66749;47.406;18.822;2023-12-20T00:12:54;100582.75;;;1.01;96.59
76994;BME280;66749;47.406;18.822;2023-12-20T00:13:26;100578.47;;;1.01;96.72
76994;BME280;66749;47.406;18.822;2023-12-20T00:13:57;100578.44;;;1.03;96.49
76994;BME280;66749;47.406;18.822;2023-12-20T00:14:29;100581.88;;;1.02;96.98
76994;BME280;66749;47.406;18.822;2023-12-20T00:15:01;100584.44;;;1.03;96.81
76994;BME280;66749;47.406;18.822;2023-12-20T00:15:33;100583.56;;;1.04;96.93
76994;BME280;66749;47.406;18.822;2023-12-20T00:16:05;100575.88;;;1.03;96.92
76994;BME280;66749;47.406;18.822;2023-12-20T00:16:37;100574.13;;;1.05;96.86
76994;BME280;66749;47.406;18.822;2023-12-20T00:17:09;100585.25;;;1.05;97.10
76994;BME280;66749;47.406;18.822;2023-12-20T00:17:41;100581.81;;;1.05;96.98
76994;BME280;66749;47.406;18.822;2023-12-20T00:18:13;100583.53;;;1.07;96.97
76994;BME280;66749;47.406;18.822;2023-12-20T00:18:45;100573.22;;;1.09;97.03
76994;BME280;66749;47.406;18.822;2023-12-20T00:19:17;100575.75;;;1.10;96.74
76994;BME280;66749;47.406;18.822;2023-12-20T00:19:49;100583.47;;;1.10;96.78
76994;BME280;66749;47.406;18.822;2023-12-20T00:20:21;100580.09;;;1.08;97.02
76994;BME280;66749;47.406;18.822;2023-12-20T00:20:53;100574.94;;;1.08;96.56
76994;BME280;66749;47.406;18.822;2023-12-20T00:21:25;100574.06;;;1.09;96.93
76994;BME280;66749;47.406;18.822;2023-12-20T00:21:56;100572.34;;;1.10;96.92
76994;BME280;66749;47.406;18.822;2023-12-20T00:22:28;100573.16;;;1.12;97.46
76994;BME280;66749;47.406;18.822;2023-12-20T00:23:00;100577.50;;;1.08;96.88
76994;BME280;66749;47.406;18.822;2023-12-20T00:23:32;100567.25;;;1.05;96.74
76994;BME280;66749;47.406;18.822;2023-12-20T00:24:04;100561.28;;;1.06;96.94
76994;BME280;66749;47.406;18.822;2023-12-20T00:24:36;100568.97;;;1.06;97.41
76994;BME280;66749;47.406;18.822;2023-12-20T00:25:08;100568.09;;;1.07;97.12
76994;BME280;66749;47.406;18.822;2023-12-20T00:25:40;100562.97;;;1.07;97.23
76994;BME280;66749;47.406;18.822;2023-12-20T00:26:12;100560.38;;;1.09;96.97
76994;BME280;66749;47.406;18.822;2023-12-20T00:26:44;100564.66;;;1.08;97.13
76994;BME280;66749;47.406;18.822;2023-12-20T00:27:16;100562.09;;;1.08;96.68
76994;BME280;66749;47.406;18.822;2023-12-20T00:27:47;100551.84;;;1.07;96.95
76994;BME280;66749;47.406;18.822;2023-12-20T00:28:20;100557.84;;;1.06;96.79
76994;BME280;66749;47.406;18.822;2023-12-20T00:28:52;100555.28;;;1.06;96.62
76994;BME280;66749;47.406;18.822;2023-12-20T00:29:23;100558.72;;;1.06;96.84
76994;BME280;66749;47.406;18.822;2023-12-20T00:29:55;100561.28;;;1.05;96.41
76994;BME280;66749;47.406;18.822;2023-12-20T00:30:28;100557.00;;;1.04;96.53
76994;BME280;66749;47.406;18.822;2023-12-20T00:30:59;100554.56;;;0.96;96.54
76994;BME280;66749;47.406;18.822;2023-12-20T00:31:31;100552.88;;;0.94;96.58
76994;BME280;66749;47.406;18.822;2023-12-20T00:32:03;100552.88;;;0.94;97.41
76994;BME280;66749;47.406;18.822;2023-12-20T00:32:36;100550.34;;;0.92;97.20
76994;BME280;66749;47.406;18.822;2023-12-20T00:33:08;100556.38;;;0.88;97.08
76994;BME280;66749;47.406;18.822;2023-12-20T00:33:40;100555.47;;;0.91;97.02
76994;BME280;66749;47.406;18.822;2023-12-20T00:34:15;100552.88;;;0.94;97.16
76994;BME280;66749;47.406;18.822;2023-12-20T00:34:47;100551.19;;;0.93;97.49
76994;BME280;66749;47.406;18.822;2023-12-20T00:35:19;100551.19;;;0.93;97.70
76994;BME280;66749;47.406;18.822;2023-12-20T00:35:51;100547.72;;;0.95;96.82
76994;BME280;66749;47.406;18.822;2023-12-20T00:36:23;100553.72;;;0.94;96.75
76994;BME280;66749;47.406;18.822;2023-12-20T00:36:54;100549.47;;;0.93;97.22
76994;BME280;66749;47.406;18.822;2023-12-20T00:37:26;100546.06;;;0.90;97.01
76994;BME280;66749;47.406;18.822;2023-12-20T00:37:58;100548.66;;;0.88;97.33
76994;BME280;66749;47.406;18.822;2023-12-20T00:38:31;100545.28;;;0.86;97.19
76994;BME280;66749;47.406;18.822;2023-12-20T00:39:02;100543.59;;;0.85;97.22
76994;BME280;66749;47.406;18.822;2023-12-20T00:39:34;100548.66;;;0.88;97.33
76994;BME280;66749;47.406;18.822;2023-12-20T00:40:07;100546.06;;;0.90;97.21
76994;BME280;66749;47.406;18.822;2023-12-20T00:40:39;100546.94;;;0.92;97.37
76994;BME280;66749;47.406;18.822;2023-12-20T00:41:10;100542.63;;;0.92;97.49
76994;BME280;66749;47.406;18.822;2023-12-20T00:41:42;100547.72;;;0.95;97.36
76994;BME280;66749;47.406;18.822;2023-12-20T00:42:14;100547.72;;;0.95;97.21
76994;BME280;66749;47.406;18.822;2023-12-20T00:42:46;100544.31;;;0.95;97.42
76994;BME280;66749;47.406;18.822;2023-12-20T00:43:18;100548.59;;;0.94;97.55
76994;BME280;66749;47.406;18.822;2023-12-20T00:43:50;100552.81;;;0.97;97.36
76994;BME280;66749;47.406;18.822;2023-12-20T00:44:22;100540.88;;;0.94;97.63
76994;BME280;66749;47.406;18.822;2023-12-20T00:44:54;100549.47;;;0.93;97.16
76994;BME280;66749;47.406;18.822;2023-12-20T00:45:26;100548.63;;;0.93;97.44
76994;BME280;66749;47.406;18.822;2023-12-20T00:45:58;100544.34;;;0.90;97.56
76994;BME280;66749;47.406;18.822;2023-12-20T00:46:31;100541.78;;;0.90;96.87
76994;BME280;66749;47.406;18.822;2023-12-20T00:47:03;100547.78;;;0.89;97.06
76994;BME280;66749;47.406;18.822;2023-12-20T00:47:35;100541.81;;;0.89;97.19
76994;BME280;66749;47.406;18.822;2023-12-20T00:48:07;100546.94;;;0.92;97.34
76994;BME280;66749;47.406;18.822;2023-12-20T00:48:39;100546.91;;;0.90;96.90
76994;BME280;66749;47.406;18.822;2023-12-20T00:49:13;100539.22;;;0.90;97.55
76994;BME280;66749;47.406;18.822;2023-12-20T00:49:45;100543.50;;;0.91;97.24
76994;BME280;66749;47.406;18.822;2023-12-20T00:50:17;100535.81;;;0.90;97.03
76994;BME280;66749;47.406;18.822;2023-12-20T00:50:49;100540.88;;;0.94;97.45
76994;BME280;66749;47.406;18.822;2023-12-20T00:51:21;100540.88;;;0.94;97.23
76994;BME280;66749;47.406;18.822;2023-12-20T00:51:53;100537.50;;;0.92;97.30
76994;BME280;66749;47.406;18.822;2023-12-20T00:52:25;100528.03;;;0.94;97.50
76994;BME280;66749;47.406;18.822;2023-12-20T00:52:57;100527.16;;;0.95;97.05
76994;BME280;66749;47.406;18.822;2023-12-20T00:53:29;100528.81;;;0.98;97.33
76994;BME280;66749;47.406;18.822;2023-12-20T00:54:01;100529.72;;;0.98;97.08
76994;BME280;66749;47.406;18.822;2023-12-20T00:54:32;100527.97;;;1.00;97.01
76994;BME280;66749;47.406;18.822;2023-12-20T00:55:04;100524.53;;;1.00;97.22
76994;BME280;66749;47.406;18.822;2023-12-20T00:55:36;100525.38;;;1.00;97.67
76994;BME280;66749;47.406;18.822;2023-12-20T00:56:08;100521.97;;;1.00;97.24
76994;BME280;66749;47.406;18.822;2023-12-20T00:56:40;100521.94;;;1.01;97.21
76994;BME280;66749;47.406;18.822;2023-12-20T00:57:12;100526.31;;;0.95;97.62
76994;BME280;66749;47.406;18.822;2023-12-20T00:57:44;100520.34;;;0.94;97.34
76994;BME280;66749;47.406;18.822;2023-12-20T00:58:16;100521.19;;;0.95;96.95
76994;BME280;66749;47.406;18.822;2023-12-20T00:58:49;100520.31;;;0.96;97.35
76994;BME280;66749;47.406;18.822;2023-12-20T00:59:21;100518.59;;;0.96;97.34
76994;BME280;66749;47.406;18.822;2023-12-20T00:59:53;100519.47;;;0.95;97.05
76994;BME280;66749;47.406;18.822;2023-12-20T01:00:24;100522.03;;;0.95;97.25
76994;BME280;66749;47.406;18.822;2023-12-20T01:00:56;100516.88;;;0.95;97.31
76994;BME280;66749;47.406;18.822;2023-12-20T01:01:29;100516.03;;;0.95;97.12
76994;BME280;66749;47.406;18.822;2023-12-20T01:02:01;100512.56;;;0.99;97.36
76994;BME280;66749;47.406;18.822;2023-12-20T01:02:33;100513.44;;;0.96;97.13
76994;BME280;66749;47.406;18.822;2023-12-20T01:03:05;100512.59;;;0.96;97.56
76994;BME280;66749;47.406;18.822;2023-12-20T01:03:37;100503.25;;;0.92;97.44
76994;BME280;66749;47.406;18.822;2023-12-20T01:04:09;100507.53;;;0.91;97.04
76994;BME280;66749;47.406;18.822;2023-12-20T01:04:41;100512.63;;;0.94;97.24
76994;BME280;66749;47.406;18.822;2023-12-20T01:05:13;100504.97;;;0.90;97.41
76994;BME280;66749;47.406;18.822;2023-12-20T01:05:45;100510.91;;;0.95;97.24
76994;BME280;66749;47.406;18.822;2023-12-20T01:06:17;100506.66;;;0.92;97.64
76994;BME280;66749;47.406;18.822;2023-12-20T01:06:49;100504.19;;;0.86;97.17
76994;BME280;66749;47.406;18.822;2023-12-20T01:07:21;100498.16;;;0.87;97.23
76994;BME280;66749;47.406;18.822;2023-12-20T01:07:53;100494.72;;;0.88;97.42
76994;BME280;66749;47.406;18.822;2023-12-20T01:08:25;100498.97;;;0.92;97.24
76994;BME280;66749;47.406;18.822;2023-12-20T01:08:57;100495.56;;;0.92;97.09
76994;BME280;66749;47.406;18.822;2023-12-20T01:09:28;100498.13;;;0.90;97.05
76994;BME280;66749;47.406;18.822;2023-12-20T01:10:00;100499.84;;;0.91;97.17
76994;BME280;66749;47.406;18.822;2023-12-20T01:10:32;100503.25;;;0.90;97.39
76994;BME280;66749;47.406;18.822;2023-12-20T01:11:04;100485.34;;;0.87;97.04
76994;BME280;66749;47.406;18.822;2023-12-20T01:11:37;100487.88;;;0.89;97.18
76994;BME280;66749;47.406;18.822;2023-12-20T01:12:09;100487.91;;;0.87;97.30
76994;BME280;66749;47.406;18.822;2023-12-20T01:12:41;100498.13;;;0.90;96.94
76994;BME280;66749;47.406;18.822;2023-12-20T01:13:12;100496.41;;;0.92;97.09
76994;BME280;66749;47.406;18.822;2023-12-20T01:13:44;100498.03;;;0.96;97.10
76994;BME280;66749;47.406;18.822;2023-12-20T01:14:16;100494.69;;;0.93;97.04
76994;BME280;66749;47.406;18.822;2023-12-20T01:14:48;100492.94;;;0.93;96.87
76994;BME280;66749;47.406;18.822;2023-12-20T01:15:20;100490.38;;;0.93;97.21
76994;BME280;66749;47.406;18.822;2023-12-20T01:15:52;100492.94;;;0.93;97.48
76994;BME280;66749;47.406;18.822;2023-12-20T01:16:23;100492.06;;;0.94;96.89
76994;BME280;66749;47.406;18.822;2023-12-20T01:16:55;100497.19;;;0.96;96.98
76994;BME280;66749;47.406;18.822;2023-12-20T01:17:27;100489.50;;;0.94;97.18
76994;BME280;66749;47.406;18.822;2023-12-20T01:17:59;100486.94;;;0.94;96.93
76994;BME280;66749;47.406;18.822;2023-12-20T01:18:31;100489.44;;;0.97;97.21
76994;BME280;66749;47.406;18.822;2023-12-20T01:19:03;100487.72;;;0.99;96.52
76994;BME280;66749;47.406;18.822;2023-12-20T01:19:35;100488.59;;;0.98;97.42
76994;BME280;66749;47.406;18.822;2023-12-20T01:20:07;100480.00;;;0.98;96.91
76994;BME280;66749;47.406;18.822;2023-12-20T01:20:40;100486.03;;;0.98;96.41
76994;BME280;66749;47.406;18.822;2023-12-20T01:21:12;100490.34;;;0.95;97.02
76994;BME280;66749;47.406;18.822;2023-12-20T01:21:44;100475.00;;;0.90;97.33
76994;BME280;66749;47.406;18.822;2023-12-20T01:22:16;100478.47;;;0.88;97.06
76994;BME280;66749;47.406;18.822;2023-12-20T01:22:48;100479.38;;;0.85;96.69
76994;BME280;66749;47.406;18.822;2023-12-20T01:23:20;100472.47;;;0.89;96.86
76994;BME280;66749;47.406;18.822;2023-12-20T01:23:52;100475.00;;;0.90;97.20
76994;BME280;66749;47.406;18.822;2023-12-20T01:24:23;100475.00;;;0.92;97.24
76994;BME280;66749;47.406;18.822;2023-12-20T01:24:55;100472.41;;;0.93;97.02
76994;BME280;66749;47.406;18.822;2023-12-20T01:25:27;100471.53;;;0.94;97.12
76994;BME280;66749;47.406;18.822;2023-12-20T01:25:59;100474.16;;;0.91;97.13
76994;BME280;66749;47.406;18.822;2023-12-20T01:26:31;100469.03;;;0.88;97.11
76994;BME280;66749;47.406;18.822;2023-12-20T01:27:03;100466.47;;;0.88;97.15
76994;BME280;66749;47.406;18.822;2023-12-20T01:27:35;100475.06;;;0.87;97.17
76994;BME280;66749;47.406;18.822;2023-12-20T01:28:07;100461.41;;;0.85;97.25
76994;BME280;66749;47.406;18.822;2023-12-20T01:28:42;100471.69;;;0.83;96.78
76994;BME280;66749;47.406;18.822;2023-12-20T01:29:16;100464.00;;;0.82;97.43
76994;BME280;66749;47.406;18.822;2023-12-20T01:29:48;100464.06;;;0.79;96.80
76994;BME280;66749;47.406;18.822;2023-12-20T01:30:20;100459.69;;;0.82;97.34
76994;BME280;66749;47.406;18.822;2023-12-20T01:30:52;100465.69;;;0.83;96.95
76994;BME280;66749;47.406;18.822;2023-12-20T01:31:24;100465.69;;;0.83;96.92
76994;BME280;66749;47.406;18.822;2023-12-20T01:31:56;100458.84;;;0.82;96.75
76994;BME280;66749;47.406;18.822;2023-12-20T01:32:28;100460.59;;;0.80;96.96
76994;BME280;66749;47.406;18.822;2023-12-20T01:33:00;100463.16;;;0.81;97.50
76994;BME280;66749;47.406;18.822;2023-12-20T01:33:33;100458.84;;;0.82;97.47
76994;BME280;66749;47.406;18.822;2023-12-20T01:34:04;100465.72;;;0.81;97.46
76994;BME280;66749;47.406;18.822;2023-12-20T01:34:36;100463.97;;;0.85;97.59
76994;BME280;66749;47.406;18.822;2023-12-20T01:35:08;100464.84;;;0.82;96.96
76994;BME280;66749;47.406;18.822;2023-12-20T01:35:40;100468.22;;;0.86;97.39
76994;BME280;66749;47.406;18.822;2023-12-20T01:36:12;100463.06;;;0.88;97.31
76994;BME280;66749;47.406;18.822;2023-12-20T01:36:44;100469.00;;;0.90;96.87
76994;BME280;66749;47.406;18.822;2023-12-20T01:37:16;100461.41;;;0.85;97.07
76994;BME280;66749;47.406;18.822;2023-12-20T01:37:48;100465.66;;;0.86;97.07
76994;BME280;66749;47.406;18.822;2023-12-20T01:38:20;100460.53;;;0.86;96.68
76994;BME280;66749;47.406;18.822;2023-12-20T01:38:52;100464.84;;;0.84;96.89
76994;BME280;66749;47.406;18.822;2023-12-20T01:39:24;100466.56;;;0.83;97.41
76994;BME280;66749;47.406;18.822;2023-12-20T01:40:00;100463.13;;;0.85;97.00
76994;BME280;66749;47.406;18.822;2023-12-20T01:40:32;100472.56;;;0.84;96.63
76994;BME280;66749;47.406;18.822;2023-12-20T01:41:04;100463.13;;;0.83;97.03
76994;BME280;66749;47.406;18.822;2023-12-20T01:41:36;100462.28;;;0.84;97.35
76994;BME280;66749;47.406;18.822;2023-12-20T01:42:08;100461.41;;;0.85;97.25
76994;BME280;66749;47.406;18.822;2023-12-20T01:42:40;100464.00;;;0.83;97.63
76994;BME280;66749;47.406;18.822;2023-12-20T01:43:12;100462.28;;;0.84;97.08
76994;BME280;66749;47.406;18.822;2023-12-20T01:43:44;100460.53;;;0.83;97.02
76994;BME280;66749;47.406;18.822;2023-12-20T01:44:22;100457.06;;;0.87;97.09
76994;BME280;66749;47.406;18.822;2023-12-20T01:44:54;100450.25;;;0.86;96.89
76994;BME280;66749;47.406;18.822;2023-12-20T01:45:26;100447.72;;;0.81;97.26
76994;BME280;66749;47.406;18.822;2023-12-20T01:45:58;100454.69;;;0.76;97.47
76994;BME280;66749;47.406;18.822;2023-12-20T01:46:30;100448.69;;;0.76;97.16
76994;BME280;66749;47.406;18.822;2023-12-20T01:47:03;100452.09;;;0.78;97.45
76994;BME280;66749;47.406;18.822;2023-12-20T01:47:35;100449.56;;;0.76;97.57
76994;BME280;66749;47.406;18.822;2023-12-20T01:48:09;100455.53;;;0.77;97.78
76994;BME280;66749;47.406;18.822;2023-12-20T01:48:41;100447.81;;;0.75;97.74
76994;BME280;66749;47.406;18.822;2023-12-20T01:49:13;100447.84;;;0.74;97.45
76994;BME280;66749;47.406;18.822;2023-12-20T01:49:46;100442.69;;;0.77;97.34
76994;BME280;66749;47.406;18.822;2023-12-20T01:50:18;100452.97;;;0.77;97.47
76994;BME280;66749;47.406;18.822;2023-12-20T01:50:51;100447.81;;;0.77;97.53
76994;BME280;66749;47.406;18.822;2023-12-20T01:51:23;100448.72;;;0.73;97.76
76994;BME280;66749;47.406;18.822;2023-12-20T01:51:56;100442.78;;;0.71;97.46
76994;BME280;66749;47.406;18.822;2023-12-20T01:52:28;100446.25;;;0.68;97.33
76994;BME280;66749;47.406;18.822;2023-12-20T01:53:01;100441.97;;;0.67;97.47
76994;BME280;66749;47.406;18.822;2023-12-20T01:53:34;100430.84;;;0.68;97.64
76994;BME280;66749;47.406;18.822;2023-12-20T01:54:06;100435.97;;;0.68;97.59
76994;BME280;66749;47.406;18.822;2023-12-20T01:54:38;100436.81;;;0.67;97.69
76994;BME280;66749;47.406;18.822;2023-12-20T01:55:12;100436.84;;;0.66;97.74
76994;BME280;66749;47.406;18.822;2023-12-20T01:55:48;100430.91;;;0.64;97.69
76994;BME280;66749;47.406;18.822;2023-12-20T01:56:21;100426.56;;;0.66;97.36
76994;BME280;66749;47.406;18.822;2023-12-20T01:56:53;100441.16;;;0.64;97.86
76994;BME280;66749;47.406;18.822;2023-12-20T01:57:25;100431.72;;;0.66;97.95
76994;BME280;66749;47.406;18.822;2023-12-20T01:57:58;100436.00;;;0.65;97.89
76994;BME280;66749;47.406;18.822;2023-12-20T01:58:30;100425.75;;;0.64;97.88
76994;BME280;66749;47.406;18.822;2023-12-20T01:59:03;100431.69;;;0.67;97.56
76994;BME280;66749;47.406;18.822;2023-12-20T01:59:36;100431.72;;;0.66;97.72
76994;BME280;66749;47.406;18.822;2023-12-20T02:00:09;100428.34;;;0.64;97.93
76994;BME280;66749;47.406;18.822;2023-12-20T02:00:42;100424.94;;;0.62;97.91
76994;BME280;66749;47.406;18.822;2023-12-20T02:01:15;100426.63;;;0.63;97.49
76994;BME280;66749;47.406;18.822;2023-12-20T02:01:47;100424.88;;;0.65;97.60
76994;BME280;66749;47.406;18.822;2023-12-20T02:02:19;100420.56;;;0.67;98.07
76994;BME280;66749;47.406;18.822;2023-12-20T02:02:53;100424.81;;;0.68;97.76
76994;BME280;66749;47.406;18.822;2023-12-20T02:03:25;100424.81;;;0.68;97.67
76994;BME280;66749;47.406;18.822;2023-12-20T02:03:58;100414.56;;;0.68;97.46
76994;BME280;66749;47.406;18.822;2023-12-20T02:04:31;100418.84;;;0.69;97.37
76994;BME280;66749;47.406;18.822;2023-12-20T02:05:03;100413.66;;;0.72;97.80
76994;BME280;66749;47.406;18.822;2023-12-20T02:05:35;100411.97;;;0.71;97.72
76994;BME280;66749;47.406;18.822;2023-12-20T02:06:09;100411.09;;;0.72;97.70
76994;BME280;66749;47.406;18.822;2023-12-20T02:06:42;100413.66;;;0.72;97.54
76994;BME280;66749;47.406;18.822;2023-12-20T02:07:15;100413.66;;;0.72;97.26
76994;BME280;66749;47.406;18.822;2023-12-20T02:07:47;100414.47;;;0.74;97.79
76994;BME280;66749;47.406;18.822;2023-12-20T02:08:20;100416.19;;;0.73;97.53
76994;BME280;66749;47.406;18.822;2023-12-20T02:08:52;100417.06;;;0.72;97.85
76994;BME280;66749;47.406;18.822;2023-12-20T02:09:24;100414.53;;;0.71;97.76
76994;BME280;66749;47.406;18.822;2023-12-20T02:09:55;100417.97;;;0.70;97.54
76994;BME280;66749;47.406;18.822;2023-12-20T02:10:28;100420.50;;;0.71;97.79
76994;BME280;66749;47.406;18.822;2023-12-20T02:11:01;100411.94;;;0.72;97.61
76994;BME280;66749;47.406;18.822;2023-12-20T02:11:33;100416.22;;;0.72;97.23
76994;BME280;66749;47.406;18.822;2023-12-20T02:12:07;100415.38;;;0.71;97.53
76994;BME280;66749;47.406;18.822;2023-12-20T02:12:40;100409.38;;;0.72;97.70
76994;BME280;66749;47.406;18.822;2023-12-20T02:13:12;100406.78;;;0.72;97.47
76994;BME280;66749;47.406;18.822;2023-12-20T02:13:43;100409.34;;;0.74;97.12
76994;BME280;66749;47.406;18.822;2023-12-20T02:14:16;100400.75;;;0.75;97.93
76994;BME280;66749;47.406;18.822;2023-12-20T02:14:48;100405.06;;;0.73;97.61
76994;BME280;66749;47.406;18.822;2023-12-20T02:15:20;100412.84;;;0.70;97.06
76994;BME280;66749;47.406;18.822;2023-12-20T02:15:54;100404.28;;;0.68;97.49
76994;BME280;66749;47.406;18.822;2023-12-20T02:16:26;100409.44;;;0.66;97.18
76994;BME280;66749;47.406;18.822;2023-12-20T02:16:58;100407.78;;;0.64;97.30
76994;BME280;66749;47.406;18.822;2023-12-20T02:17:31;100402.69;;;0.62;97.69
76994;BME280;66749;47.406;18.822;2023-12-20T02:18:04;100412.97;;;0.61;97.21
76994;BME280;66749;47.406;18.822;2023-12-20T02:18:36;100411.31;;;0.57;97.44
76994;BME280;66749;47.406;18.822;2023-12-20T02:19:13;100403.56;;;0.60;97.38
76994;BME280;66749;47.406;18.822;2023-12-20T02:19:45;100404.41;;;0.60;97.84
76994;BME280;66749;47.406;18.822;2023-12-20T02:20:18;100412.06;;;0.63;97.48
76994;BME280;66749;47.406;18.822;2023-12-20T02:20:49;100406.91;;;0.65;97.44
76994;BME280;66749;47.406;18.822;2023-12-20T02:21:39;100406.03;;;0.66;97.74
76994;BME280;66749;47.406;18.822;2023-12-20T02:22:11;100392.38;;;0.64;97.41
76994;BME280;66749;47.406;18.822;2023-12-20T02:22:43;100395.78;;;0.64;97.52
76994;BME280;66749;47.406;18.822;2023-12-20T02:23:15;100394.97;;;0.62;97.42
76994;BME280;66749;47.406;18.822;2023-12-20T02:23:47;100392.38;;;0.64;97.34
76994;BME280;66749;47.406;18.822;2023-12-20T02:24:19;100402.66;;;0.64;97.26
76994;BME280;66749;47.406;18.822;2023-12-20T02:24:51;100397.53;;;0.64;97.43
76994;BME280;66749;47.406;18.822;2023-12-20T02:25:23;100400.94;;;0.64;97.32
76994;BME280;66749;47.406;18.822;2023-12-20T02:25:55;100391.56;;;0.60;97.28
76994;BME280;66749;47.406;18.822;2023-12-20T02:26:27;100394.16;;;0.59;97.19
76994;BME280;66749;47.406;18.822;2023-12-20T02:26:59;100397.56;;;0.61;97.25
76994;BME280;66749;47.406;18.822;2023-12-20T02:27:30;100395.81;;;0.63;97.37
76994;BME280;66749;47.406;18.822;2023-12-20T02:28:04;100395.84;;;0.61;97.56
76994;BME280;66749;47.406;18.822;2023-12-20T02:28:36;100399.28;;;0.62;97.52
76994;BME280;66749;47.406;18.822;2023-12-20T02:29:08;100383.88;;;0.62;97.63
76994;BME280;66749;47.406;18.822;2023-12-20T02:29:40;100391.53;;;0.63;97.49
76994;BME280;66749;47.406;18.822;2023-12-20T02:30:12;100396.66;;;0.65;97.41
76994;BME280;66749;47.406;18.822;2023-12-20T02:30:44;100395.78;;;0.64;97.26
76994;BME280;66749;47.406;18.822;2023-12-20T02:31:16;100393.19;;;0.66;97.38
76994;BME280;66749;47.406;18.822;2023-12-20T02:31:47;100396.59;;;0.66;97.23
76994;BME280;66749;47.406;18.822;2023-12-20T02:32:20;100385.50;;;0.66;97.22
76994;BME280;66749;47.406;18.822;2023-12-20T02:32:52;100395.78;;;0.66;97.18
76994;BME280;66749;47.406;18.822;2023-12-20T02:33:25;100387.25;;;0.64;97.26
76994;BME280;66749;47.406;18.822;2023-12-20T02:33:56;100388.06;;;0.66;96.82
76994;BME280;66749;47.406;18.822;2023-12-20T02:34:29;100399.16;;;0.68;96.81
76994;BME280;66749;47.406;18.822;2023-12-20T02:35:01;100394.84;;;0.71;96.73
76994;BME280;66749;47.406;18.822;2023-12-20T02:35:33;100392.22;;;0.73;96.66
76994;BME280;66749;47.406;18.822;2023-12-20T02:36:06;100393.91;;;0.74;96.82
76994;BME280;66749;47.406;18.822;2023-12-20T02:36:38;100399.91;;;0.76;97.07
76994;BME280;66749;47.406;18.822;2023-12-20T02:37:10;100404.16;;;0.77;97.11
76994;BME280;66749;47.406;18.822;2023-12-20T02:37:42;100404.97;;;0.79;96.91
76994;BME280;66749;47.406;18.822;2023-12-20T02:38:15;100395.59;;;0.78;97.01
76994;BME280;66749;47.406;18.822;2023-12-20T02:38:47;100394.75;;;0.77;97.16
76994;BME280;66749;47.406;18.822;2023-12-20T02:39:21;100399.88;;;0.77;97.23
76994;BME280;66749;47.406;18.822;2023-12-20T02:39:53;100390.44;;;0.78;97.45
76994;BME280;66749;47.406;18.822;2023-12-20T02:40:24;100391.28;;;0.78;97.25
76994;BME280;66749;47.406;18.822;2023-12-20T02:40:56;100389.56;;;0.79;96.63
76994;BME280;66749;47.406;18.822;2023-12-20T02:41:28;100393.84;;;0.80;97.06
76994;BME280;66749;47.406;18.822;2023-12-20T02:42:00;100388.69;;;0.80;97.06
76994;BME280;66749;47.406;18.822;2023-12-20T02:42:32;100382.72;;;0.79;97.20
76994;BME280;66749;47.406;18.822;2023-12-20T02:43:04;100379.31;;;0.79;96.94
76994;BME280;66749;47.406;18.822;2023-12-20T02:43:36;100382.69;;;0.81;96.81
76994;BME280;66749;47.406;18.822;2023-12-20T02:44:08;100378.41;;;0.80;96.74
76994;BME280;66749;47.406;18.822;2023-12-20T02:44:40;100369.84;;;0.81;96.88
76994;BME280;66749;47.406;18.822;2023-12-20T02:45:12;100374.97;;;0.81;96.67
76994;BME280;66749;47.406;18.822;2023-12-20T02:45:43;100373.31;;;0.78;96.59
76994;BME280;66749;47.406;18.822;2023-12-20T02:46:16;100375.06;;;0.76;96.56
76994;BME280;66749;47.406;18.822;2023-12-20T02:46:49;100370.75;;;0.78;96.42
76994;BME280;66749;47.406;18.822;2023-12-20T02:47:20;100367.38;;;0.76;96.25
76994;BME280;66749;47.406;18.822;2023-12-20T02:47:53;100367.31;;;0.79;96.48
76994;BME280;66749;47.406;18.822;2023-12-20T02:48:25;100363.81;;;0.82;96.56